Time;durP1;ratioP1;P1;durP2;ratioP2;P2;SDS_P1;SDS_P2;PMS_P1;PMS_P2;Temp;Humidity;BMP_temperature;BMP_pressure;BME280_temperature;BME280_humidity;BME280_pressure;Samples;Min_cycle;Max_cycle;Signal;HPM_P1;HPM_P2
2023/09/30 00:01:45;;;;;;;4.50;2.50;;;16.00;99.90;;;;;;4149428;28;20034;-71
2023/09/30 00:03:46;;;;;;;6.32;2.88;;;16.00;99.90;;;;;;4121311;28;20511;-71
2023/09/30 00:05:46;;;;;;;6.28;2.67;;;16.00;99.90;;;;;;4148809;28;20061;-71
2023/09/30 00:07:47;;;;;;;6.88;2.78;;;16.00;99.90;;;;;;4152155;28;20121;-71
2023/09/30 00:09:48;;;;;;;4.65;2.70;;;16.00;99.90;;;;;;4154313;28;20034;-70
2023/09/30 00:11:48;;;;;;;7.70;3.05;;;16.00;99.90;;;;;;4149525;28;20033;-71
2023/09/30 00:13:50;;;;;;;6.72;3.40;;;16.00;99.90;;;;;;4137561;28;20041;-70
2023/09/30 00:15:50;;;;;;;6.55;2.85;;;16.00;99.90;;;;;;4147406;28;20116;-70
2023/09/30 00:17:51;;;;;;;7.47;3.28;;;16.10;99.90;;;;;;4149934;28;20033;-70
2023/09/30 00:19:51;;;;;;;5.68;3.30;;;16.00;99.90;;;;;;4153475;28;20041;-70
2023/09/30 00:21:52;;;;;;;7.20;3.40;;;16.00;99.90;;;;;;4135919;28;20046;-70
2023/09/30 00:23:53;;;;;;;4.93;2.72;;;16.10;99.90;;;;;;4151230;28;20495;-70
2023/09/30 00:25:53;;;;;;;7.43;3.42;;;16.10;99.90;;;;;;4130927;28;20034;-70
2023/09/30 00:27:54;;;;;;;7.45;3.42;;;16.10;99.90;;;;;;4150448;28;20102;-70
2023/09/30 00:29:54;;;;;;;6.50;3.17;;;16.10;99.90;;;;;;4152180;28;20063;-70
2023/09/30 00:31:55;;;;;;;7.95;3.78;;;16.10;99.90;;;;;;4152640;28;20080;-70
2023/09/30 00:33:56;;;;;;;8.70;3.40;;;16.10;99.90;;;;;;4148335;28;20060;-70
2023/09/30 00:35:56;;;;;;;8.35;4.10;;;16.10;99.90;;;;;;4147211;28;20542;-70
2023/09/30 00:37:57;;;;;;;7.88;4.00;;;16.20;99.90;;;;;;4153299;28;20034;-70
2023/09/30 00:39:57;;;;;;;6.38;3.55;;;16.10;99.90;;;;;;4131082;28;20026;-70
2023/09/30 00:41:58;;;;;;;7.38;3.40;;;16.20;99.90;;;;;;4148790;28;20077;-70
2023/09/30 00:43:59;;;;;;;7.28;3.30;;;16.10;99.90;;;;;;4152687;28;20044;-70
2023/09/30 00:46:12;;;;;;;8.50;3.65;;;16.10;99.90;;;;;;4149393;28;20471;-70
2023/09/30 00:48:13;;;;;;;10.73;4.63;;;16.20;99.90;;;;;;4154000;28;20030;-70
2023/09/30 00:50:14;;;;;;;9.88;4.97;;;16.10;99.90;;;;;;4151546;28;20406;-70
2023/09/30 00:52:15;;;;;;;8.85;4.40;;;16.10;99.90;;;;;;4149580;28;20049;-71
2023/09/30 00:54:16;;;;;;;10.60;4.75;;;16.10;99.90;;;;;;4134649;28;20406;-70
2023/09/30 00:56:18;;;;;;;9.77;4.90;;;16.20;99.90;;;;;;4151699;28;20091;-72
2023/09/30 00:58:19;;;;;;;9.18;4.93;;;16.20;99.90;;;;;;4145290;28;20087;-72
2023/09/30 01:00:20;;;;;;;9.55;4.65;;;16.20;99.90;;;;;;4147019;28;20037;-72
2023/09/30 01:02:22;;;;;;;10.23;4.80;;;16.20;99.90;;;;;;4144259;28;20065;-72
2023/09/30 01:04:23;;;;;;;;;;;16.20;99.90;;;;;;4148360;28;20042;-72
2023/09/30 01:06:24;;;;;;;9.48;5.03;;;16.20;99.90;;;;;;4146998;28;20390;-72
2023/09/30 01:08:25;;;;;;;9.18;4.68;;;16.20;99.90;;;;;;4147721;28;20506;-72
2023/09/30 01:10:27;;;;;;;10.35;4.63;;;16.10;99.90;;;;;;4145764;28;20034;-72
2023/09/30 01:12:28;;;;;;;12.23;4.85;;;16.20;99.90;;;;;;4145467;28;20124;-72
2023/09/30 01:14:32;;;;;;;8.82;4.45;;;16.20;99.90;;;;;;4147304;28;20115;-72
2023/09/30 01:16:32;;;;;;;10.63;4.85;;;16.20;99.90;;;;;;4144509;28;20026;-72
2023/09/30 01:18:33;;;;;;;10.82;4.80;;;16.10;99.90;;;;;;4126483;28;20026;-72
2023/09/30 01:20:34;;;;;;;9.93;4.07;;;16.20;99.90;;;;;;4144163;28;20113;-72
2023/09/30 01:22:34;;;;;;;10.43;4.85;;;16.10;99.90;;;;;;4147955;28;20057;-72
2023/09/30 01:24:42;;;;;;;10.55;4.72;;;16.20;99.90;;;;;;4147534;28;20433;-72
2023/09/30 01:26:46;;;;;;;10.75;4.15;;;16.10;99.90;;;;;;4144380;28;20041;-72
2023/09/30 01:28:48;;;;;;;9.18;3.63;;;16.10;99.90;;;;;;4147250;28;20038;-72
2023/09/30 01:30:49;;;;;;;9.07;4.40;;;16.20;99.90;;;;;;4150092;28;20403;-73
2023/09/30 01:32:49;;;;;;;9.57;4.35;;;16.20;99.90;;;;;;4147527;28;20045;-73
2023/09/30 01:34:50;;;;;;;11.05;4.80;;;16.20;99.90;;;;;;4144990;28;20446;-73
2023/09/30 01:36:51;;;;;;;10.48;4.85;;;16.20;99.90;;;;;;4145361;28;20055;-73
2023/09/30 01:38:51;;;;;;;8.93;4.20;;;16.20;99.90;;;;;;4146124;28;20026;-73
2023/09/30 01:40:54;;;;;;;10.32;4.70;;;16.20;99.90;;;;;;4151481;28;20045;-73
2023/09/30 01:42:56;;;;;;;9.93;4.05;;;16.20;99.90;;;;;;4149145;28;20033;-73
2023/09/30 01:44:57;;;;;;;8.13;3.88;;;16.10;99.90;;;;;;4145056;28;20084;-73
2023/09/30 01:46:58;;;;;;;9.07;3.80;;;16.10;99.90;;;;;;4145924;28;20053;-73
2023/09/30 01:48:59;;;;;;;10.63;4.22;;;16.10;99.90;;;;;;4131770;28;20046;-72
2023/09/30 01:51:00;;;;;;;10.57;4.30;;;16.10;99.90;;;;;;4132113;28;20112;-72
2023/09/30 01:53:01;;;;;;;10.50;4.50;;;16.10;99.90;;;;;;4146829;28;21465;-72
2023/09/30 01:55:02;;;;;;;9.00;4.03;;;16.10;99.90;;;;;;4129944;28;20034;-72
2023/09/30 01:57:03;;;;;;;6.90;3.60;;;16.10;99.90;;;;;;4149410;28;20021;-72
2023/09/30 01:59:03;;;;;;;9.85;4.03;;;16.10;99.90;;;;;;4134684;28;20026;-72
2023/09/30 02:01:04;;;;;;;7.80;4.10;;;16.10;99.90;;;;;;4133275;28;20033;-72
2023/09/30 02:03:05;;;;;;;9.35;3.95;;;16.00;99.90;;;;;;4149082;28;20095;-73
2023/09/30 02:05:08;;;;;;;8.32;4.00;;;16.00;99.90;;;;;;4150009;28;20037;-74
2023/09/30 02:07:08;;;;;;;;;;;16.00;99.90;;;;;;4149702;28;20058;-72
2023/09/30 02:09:09;;;;;;;8.82;3.70;;;16.00;99.90;;;;;;4133397;28;19910;-72
2023/09/30 02:11:10;;;;;;;5.53;2.90;;;16.00;99.90;;;;;;4150525;28;20445;-73
2023/09/30 02:13:10;;;;;;;8.13;3.67;;;16.00;99.90;;;;;;4152963;28;20033;-73
2023/09/30 02:15:12;;;;;;;10.98;3.72;;;15.90;99.90;;;;;;4154824;28;20037;-73
2023/09/30 02:17:13;;;;;;;10.88;4.63;;;15.90;99.90;;;;;;4154194;28;20030;-73
2023/09/30 02:19:13;;;;;;;9.23;3.58;;;15.90;99.90;;;;;;4151499;28;20532;-73
2023/09/30 02:21:14;;;;;;;7.55;3.50;;;15.90;99.90;;;;;;4146713;28;20097;-72
2023/09/30 02:23:17;;;;;;;7.50;3.70;;;15.90;99.90;;;;;;4154942;28;20054;-73
2023/09/30 02:25:17;;;;;;;6.43;3.58;;;15.90;99.90;;;;;;4134083;28;20034;-73
2023/09/30 02:27:18;;;;;;;8.88;3.45;;;16.00;99.90;;;;;;4136067;28;20113;-73
2023/09/30 02:29:19;;;;;;;9.80;3.70;;;16.00;99.90;;;;;;4155220;28;20125;-72
2023/09/30 02:31:20;;;;;;;7.13;3.42;;;16.00;99.90;;;;;;4152733;28;20113;-73
2023/09/30 02:33:21;;;;;;;9.18;3.60;;;15.90;99.90;;;;;;4160742;28;20041;-72
2023/09/30 02:35:21;;;;;;;6.40;3.13;;;15.90;99.90;;;;;;4151124;28;20067;-73
2023/09/30 02:37:22;;;;;;;8.18;3.97;;;15.90;99.90;;;;;;4151139;28;20030;-70
2023/09/30 02:39:22;;;;;;;7.00;3.30;;;15.90;99.90;;;;;;4156341;28;20034;-70
2023/09/30 02:41:23;;;;;;;6.90;3.10;;;15.90;99.90;;;;;;4147093;28;20117;-70
2023/09/30 02:43:24;;;;;;;7.15;3.40;;;15.80;99.90;;;;;;4154413;28;20040;-70
2023/09/30 02:45:24;;;;;;;7.60;3.10;;;15.70;99.90;;;;;;4132570;28;20042;-70
2023/09/30 02:47:25;;;;;;;7.57;3.38;;;15.70;99.90;;;;;;4152311;28;20117;-70
2023/09/30 02:49:26;;;;;;;6.18;3.22;;;15.70;99.90;;;;;;4157955;28;20699;-70
2023/09/30 02:51:26;;;;;;;7.50;3.45;;;15.70;99.90;;;;;;4129193;28;20030;-70
2023/09/30 02:53:27;;;;;;;8.45;3.10;;;15.70;99.90;;;;;;4159167;28;20080;-70
2023/09/30 02:55:28;;;;;;;8.38;3.70;;;15.70;99.90;;;;;;4150165;28;20438;-70
2023/09/30 02:57:29;;;;;;;10.30;3.42;;;15.70;99.90;;;;;;4137478;28;20110;-70
2023/09/30 02:59:30;;;;;;;6.45;3.60;;;15.70;99.90;;;;;;4154218;28;20034;-70
2023/09/30 03:01:30;;;;;;;9.43;3.50;;;15.70;99.90;;;;;;4145463;28;20379;-70
2023/09/30 03:03:31;;;;;;;6.85;3.08;;;15.70;99.90;;;;;;4151851;28;20038;-70
2023/09/30 03:05:33;;;;;;;8.02;3.50;;;15.70;99.90;;;;;;4152374;28;20049;-70
2023/09/30 03:07:33;;;;;;;5.85;3.05;;;15.70;99.90;;;;;;4150332;28;20112;-70
2023/09/30 03:09:35;;;;;;;7.38;3.42;;;15.70;99.90;;;;;;4153828;28;20384;-70
2023/09/30 03:11:36;;;;;;;9.57;3.85;;;15.60;99.90;;;;;;4148864;28;20652;-70
2023/09/30 03:13:37;;;;;;;8.73;3.55;;;15.60;99.90;;;;;;4153026;28;20045;-70
2023/09/30 03:15:38;;;;;;;5.47;3.15;;;15.60;99.90;;;;;;4154139;28;20609;-70
2023/09/30 03:17:39;;;;;;;5.38;2.92;;;15.60;99.90;;;;;;4151024;28;20060;-70
2023/09/30 03:19:40;;;;;;;9.15;3.08;;;15.60;99.90;;;;;;4155551;28;20036;-70
2023/09/30 03:21:40;;;;;;;7.40;3.28;;;15.60;99.90;;;;;;4149519;28;20034;-70
2023/09/30 03:23:42;;;;;;;7.78;3.67;;;15.50;99.90;;;;;;4154712;28;20091;-70
2023/09/30 03:25:42;;;;;;;8.38;3.35;;;15.50;99.90;;;;;;4154016;28;20057;-72
2023/09/30 03:27:47;;;;;;;9.45;3.67;;;15.50;99.90;;;;;;4142207;28;20612;-70
2023/09/30 03:29:47;;;;;;;6.60;3.03;;;15.50;99.90;;;;;;4154123;28;20036;-70
2023/09/30 03:31:48;;;;;;;9.50;3.30;;;15.50;99.90;;;;;;4154024;28;20507;-71
2023/09/30 03:33:53;;;;;;;7.22;3.50;;;15.50;99.90;;;;;;4151534;28;20034;-71
2023/09/30 03:35:54;;;;;;;6.68;3.05;;;15.50;99.90;;;;;;4137591;28;20030;-71
2023/09/30 03:37:55;;;;;;;5.85;3.85;;;15.50;99.90;;;;;;4155206;28;20117;-70
2023/09/30 03:39:56;;;;;;;8.30;3.80;;;15.50;99.90;;;;;;4154602;28;20037;-70
2023/09/30 03:41:58;;;;;;;7.65;4.30;;;15.50;99.90;;;;;;4152642;28;20128;-71
2023/09/30 03:43:58;;;;;;;7.43;3.80;;;15.50;99.90;;;;;;4153858;28;20059;-70
2023/09/30 03:46:00;;;;;;;9.77;4.00;;;15.50;99.90;;;;;;4128782;28;20052;-71
2023/09/30 03:48:02;;;;;;;6.50;4.17;;;15.50;99.90;;;;;;4142906;28;20038;-75
2023/09/30 03:50:04;;;;;;;8.40;4.50;;;15.50;99.90;;;;;;4153311;28;22514;-75
2023/09/30 03:52:06;;;;;;;7.20;4.20;;;15.50;99.90;;;;;;4149403;28;20489;-75
2023/09/30 03:54:07;;;;;;;11.65;4.00;;;15.50;99.90;;;;;;4150785;28;20030;-75
2023/09/30 03:56:07;;;;;;;7.45;4.50;;;15.50;99.90;;;;;;4158479;28;20045;-74
2023/09/30 03:58:08;;;;;;;8.70;4.45;;;15.50;99.90;;;;;;4152234;28;20084;-74
2023/09/30 04:00:18;;;;;;;8.07;4.07;;;15.50;99.90;;;;;;4152232;28;20029;-75
2023/09/30 04:02:19;;;;;;;8.48;4.55;;;15.50;99.90;;;;;;4131860;28;20093;-74
2023/09/30 04:04:21;;;;;;;7.90;3.85;;;15.60;99.90;;;;;;4145734;28;20084;-74
2023/09/30 04:06:22;;;;;;;6.15;3.75;;;15.50;99.90;;;;;;4151044;28;20037;-74
2023/09/30 04:08:22;;;;;;;8.85;4.65;;;15.60;99.90;;;;;;4149741;28;20121;-74
2023/09/30 04:10:23;;;;;;;9.52;4.53;;;15.50;99.90;;;;;;4132901;28;20553;-74
2023/09/30 04:12:24;;;;;;;6.25;3.80;;;15.50;99.90;;;;;;4154386;28;20041;-74
2023/09/30 04:14:25;;;;;;;7.47;3.70;;;15.50;99.90;;;;;;4154304;28;20045;-74
2023/09/30 04:16:28;;;;;;;9.40;4.40;;;15.50;99.90;;;;;;4151170;28;20045;-74
2023/09/30 04:18:30;;;;;;;6.75;4.00;;;15.50;99.90;;;;;;4134463;28;20029;-75
2023/09/30 04:20:31;;;;;;;7.65;3.88;;;15.40;99.90;;;;;;4118245;28;20141;-74
2023/09/30 04:22:32;;;;;;;6.57;3.85;;;15.40;99.90;;;;;;4149303;28;20088;-74
2023/09/30 04:24:34;;;;;;;7.20;3.85;;;15.50;99.90;;;;;;4131181;28;20045;-73
2023/09/30 04:26:35;;;;;;;7.13;3.63;;;15.40;99.90;;;;;;4152234;28;20490;-74
2023/09/30 04:28:35;;;;;;;7.97;3.92;;;15.40;99.90;;;;;;4146078;28;20041;-74
2023/09/30 04:30:36;;;;;;;5.97;3.33;;;15.40;99.90;;;;;;4152898;28;20114;-74
2023/09/30 04:32:38;;;;;;;6.75;3.67;;;15.40;99.90;;;;;;4118871;28;20077;-74
2023/09/30 04:34:38;;;;;;;6.75;3.50;;;15.40;99.90;;;;;;4148621;28;20033;-74
2023/09/30 04:36:39;;;;;;;6.45;3.78;;;15.40;99.90;;;;;;4149319;28;20443;-74
2023/09/30 04:38:40;;;;;;;6.32;3.90;;;15.40;99.90;;;;;;4146375;28;20034;-74
2023/09/30 04:40:43;;;;;;;7.50;3.88;;;15.40;99.90;;;;;;4065139;28;20098;-74
2023/09/30 04:42:44;;;;;;;5.63;3.53;;;15.40;99.90;;;;;;4052911;28;20042;-74
2023/09/30 04:44:44;;;;;;;7.72;3.67;;;15.40;99.90;;;;;;4147426;28;20037;-74
2023/09/30 04:46:46;;;;;;;7.03;3.70;;;15.40;99.90;;;;;;4150342;28;20045;-74
2023/09/30 04:48:48;;;;;;;8.13;4.10;;;15.30;99.90;;;;;;4148820;28;20033;-74
2023/09/30 04:50:49;;;;;;;7.20;3.70;;;15.40;99.90;;;;;;4144832;28;20040;-73
2023/09/30 04:52:53;;;;;;;8.20;4.38;;;15.30;99.90;;;;;;4145428;28;20150;-74
2023/09/30 04:54:54;;;;;;;6.38;3.70;;;15.30;99.90;;;;;;4148031;28;20026;-74
2023/09/30 04:56:55;;;;;;;6.18;3.92;;;15.30;99.90;;;;;;4147072;28;20137;-71
2023/09/30 04:58:55;;;;;;;6.95;4.25;;;15.30;99.90;;;;;;4146487;28;20045;-74
2023/09/30 05:00:56;;;;;;;6.15;3.50;;;15.30;99.90;;;;;;4131456;28;20510;-74
2023/09/30 05:02:58;;;;;;;7.63;3.80;;;15.30;99.90;;;;;;4150344;28;20057;-74
2023/09/30 05:04:59;;;;;;;6.53;3.97;;;15.30;99.90;;;;;;4145660;28;20061;-74
2023/09/30 05:07:00;;;;;;;9.07;4.13;;;15.20;99.90;;;;;;4148680;28;20556;-74
2023/09/30 05:09:00;;;;;;;8.63;4.95;;;15.20;99.90;;;;;;4147976;28;20113;-74
2023/09/30 05:11:01;;;;;;;7.65;4.35;;;15.30;99.90;;;;;;4149955;28;20486;-74
2023/09/30 05:13:02;;;;;;;9.48;4.40;;;15.20;99.90;;;;;;4152018;28;19924;-74
2023/09/30 05:15:06;;;;;;;8.65;4.60;;;15.20;99.90;;;;;;4150777;28;20056;-74
2023/09/30 05:17:08;;;;;;;10.57;4.60;;;15.20;99.90;;;;;;4122090;28;20046;-74
2023/09/30 05:19:09;;;;;;;8.00;4.20;;;15.10;99.90;;;;;;4060824;28;20491;-74
2023/09/30 05:21:10;;;;;;;10.73;4.50;;;15.10;99.90;;;;;;4128618;28;20026;-74
2023/09/30 05:23:12;;;;;;;8.85;4.65;;;15.10;99.90;;;;;;4143760;28;20088;-74
2023/09/30 05:25:17;;;;;;;10.55;4.35;;;15.00;99.90;;;;;;4145656;28;20044;-75
2023/09/30 05:27:18;;;;;;;6.22;3.97;;;15.00;99.90;;;;;;4128957;28;20031;-75
2023/09/30 05:29:20;;;;;;;7.55;4.30;;;15.00;99.90;;;;;;4123408;28;20077;-74
2023/09/30 05:31:21;;;;;;;7.67;4.83;;;15.00;99.90;;;;;;4134232;28;20038;-74
2023/09/30 05:33:22;;;;;;;7.00;3.95;;;15.00;99.90;;;;;;4132926;28;20073;-74
2023/09/30 05:35:23;;;;;;;9.30;4.38;;;15.00;99.90;;;;;;4119249;28;20046;-75
2023/09/30 05:37:26;;;;;;;8.80;4.40;;;15.00;99.90;;;;;;4140870;28;20494;-74
2023/09/30 05:39:26;;;;;;;6.82;3.97;;;15.00;99.90;;;;;;4136948;28;20026;-74
2023/09/30 05:41:27;;;;;;;10.00;4.82;;;15.00;99.90;;;;;;4129256;28;20030;-74
2023/09/30 05:43:29;;;;;;;8.80;4.68;;;15.00;99.90;;;;;;4138373;28;20026;-75
2023/09/30 05:45:36;;;;;;;6.55;4.32;;;15.00;99.90;;;;;;4137210;28;20029;-70
2023/09/30 05:47:36;;;;;;;7.38;4.10;;;15.00;99.90;;;;;;4125688;28;20037;-71
2023/09/30 05:49:37;;;;;;;8.23;5.03;;;15.00;99.90;;;;;;4120639;28;20038;-70
2023/09/30 05:51:38;;;;;;;9.32;4.95;;;14.90;99.90;;;;;;4130679;28;20038;-70
2023/09/30 05:53:39;;;;;;;9.07;4.45;;;15.00;99.90;;;;;;4130071;28;20038;-71
2023/09/30 05:55:45;;;;;;;10.65;4.50;;;14.90;99.90;;;;;;4130566;28;20478;-69
2023/09/30 05:57:47;;;;;;;13.35;4.90;;;14.90;99.90;;;;;;4124783;28;20066;-70
2023/09/30 05:59:49;;;;;;;7.88;4.10;;;15.00;99.90;;;;;;4135144;28;20106;-70
2023/09/30 06:01:50;;;;;;;9.02;4.50;;;14.90;99.90;;;;;;4135247;28;20442;-70
2023/09/30 06:03:51;;;;;;;8.80;4.15;;;14.90;99.90;;;;;;4114451;28;20054;-70
2023/09/30 06:05:52;;;;;;;7.57;4.50;;;15.00;99.90;;;;;;4131433;28;20043;-70
2023/09/30 06:07:54;;;;;;;9.07;5.68;;;14.90;99.90;;;;;;4135659;28;20113;-71
2023/09/30 06:09:54;;;;;;;9.65;5.47;;;15.00;99.90;;;;;;4131853;28;20084;-71
2023/09/30 06:11:55;;;;;;;11.02;5.53;;;15.00;99.90;;;;;;4129310;28;20447;-71
2023/09/30 06:14:00;;;;;;;9.20;5.38;;;15.00;99.90;;;;;;4134305;28;20976;-71
2023/09/30 06:16:02;;;;;;;7.60;4.82;;;15.00;99.90;;;;;;4138087;28;20070;-71
2023/09/30 06:18:04;;;;;;;8.43;4.90;;;15.00;99.90;;;;;;4125818;28;20030;-71
2023/09/30 06:20:15;;;;;;;7.82;5.05;;;15.00;99.90;;;;;;4119041;28;20038;-72
2023/09/30 06:22:16;;;;;;;8.75;5.55;;;15.10;99.90;;;;;;4146522;28;20130;-71
2023/09/30 06:24:16;;;;;;;8.60;5.20;;;15.10;99.90;;;;;;4146408;28;20046;-71
2023/09/30 06:26:18;;;;;;;11.00;5.70;;;15.10;99.90;;;;;;4148514;28;20045;-71
2023/09/30 06:28:25;;;;;;;11.05;5.70;;;15.10;99.90;;;;;;4146491;28;20034;-71
2023/09/30 06:30:33;;;;;;;9.07;6.05;;;15.10;99.90;;;;;;4130374;28;20076;-71
2023/09/30 06:32:35;;;;;;;8.75;5.65;;;15.10;99.90;;;;;;4150529;28;20050;-71
2023/09/30 06:34:36;;;;;;;9.85;6.22;;;15.10;99.90;;;;;;4150201;28;20033;-71
2023/09/30 06:36:37;;;;;;;9.98;6.47;;;15.10;99.90;;;;;;4150717;28;20050;-71
2023/09/30 06:38:38;;;;;;;9.70;6.53;;;15.10;99.90;;;;;;4154501;28;20034;-71
2023/09/30 06:40:42;;;;;;;10.45;6.75;;;15.10;99.90;;;;;;4153744;28;21477;-70
2023/09/30 06:42:43;;;;;;;10.00;5.95;;;15.20;99.90;;;;;;4150618;28;20547;-70
2023/09/30 06:44:43;;;;;;;9.57;6.50;;;15.30;99.90;;;;;;4154829;28;20124;-71
2023/09/30 06:46:44;;;;;;;10.25;6.93;;;15.40;99.90;;;;;;4144625;28;20406;-71
2023/09/30 06:48:44;;;;;;;9.40;6.00;;;15.40;99.90;;;;;;4147623;28;20060;-71
2023/09/30 06:50:48;;;;;;;8.00;6.10;;;15.60;99.90;;;;;;4149794;28;20030;-71
2023/09/30 06:52:51;;;;;;;8.90;6.40;;;15.70;99.90;;;;;;4146782;28;20703;-71
2023/09/30 06:54:52;;;;;;;10.25;6.72;;;15.90;99.90;;;;;;4151448;28;20485;-71
2023/09/30 06:56:53;;;;;;;10.82;6.40;;;16.00;99.90;;;;;;4114872;28;20089;-71
2023/09/30 06:58:54;;;;;;;8.98;6.20;;;16.10;99.90;;;;;;4149999;28;20034;-71
2023/09/30 07:00:54;;;;;;;11.55;6.50;;;16.30;99.90;;;;;;4150043;28;20456;-71
2023/09/30 07:02:55;;;;;;;11.52;6.25;;;16.50;99.90;;;;;;4146486;28;20105;-71
2023/09/30 07:04:55;;;;;;;9.27;6.00;;;16.70;99.90;;;;;;4139384;28;20030;-71
2023/09/30 07:06:56;;;;;;;10.02;6.45;;;16.90;99.90;;;;;;4149312;28;20041;-71
2023/09/30 07:08:57;;;;;;;11.10;7.05;;;17.00;99.90;;;;;;4155370;28;20492;-71
2023/09/30 07:10:57;;;;;;;10.43;7.00;;;17.20;99.90;;;;;;4153012;28;20036;-71
2023/09/30 07:12:58;;;;;;;12.25;7.25;;;17.30;99.90;;;;;;4138390;28;20503;-71
2023/09/30 07:14:58;;;;;;;11.63;7.90;;;17.50;99.90;;;;;;4149512;28;20045;-71
2023/09/30 07:17:04;;;;;;;10.75;6.55;;;17.60;99.90;;;;;;4149182;28;20482;-74
2023/09/30 07:19:05;;;;;;;10.10;5.72;;;17.80;99.90;;;;;;4132664;28;20105;-76
2023/09/30 07:21:05;;;;;;;11.73;7.63;;;18.00;99.90;;;;;;4149876;28;20089;-76
2023/09/30 07:23:06;;;;;;;11.18;6.60;;;18.20;99.90;;;;;;4136405;28;20576;-75
2023/09/30 07:25:08;;;;;;;7.80;5.82;;;18.40;99.90;;;;;;4151591;28;20370;-76
2023/09/30 07:27:09;;;;;;;7.93;5.85;;;18.70;99.90;;;;;;4131399;28;20117;-75
2023/09/30 07:29:10;;;;;;;9.77;6.07;;;18.80;99.90;;;;;;4150247;28;20042;-76
2023/09/30 07:31:11;;;;;;;10.05;6.47;;;19.00;99.90;;;;;;4146040;28;20045;-75
2023/09/30 07:33:12;;;;;;;10.43;6.80;;;19.20;99.90;;;;;;4148237;28;20033;-72
2023/09/30 07:35:16;;;;;;;9.98;5.78;;;19.40;99.90;;;;;;4148032;28;20033;-75
2023/09/30 07:37:17;;;;;;;7.82;5.18;;;19.60;99.90;;;;;;4146629;28;20136;-76
2023/09/30 07:39:18;;;;;;;11.13;6.50;;;19.80;99.90;;;;;;4151194;28;20043;-75
2023/09/30 07:41:19;;;;;;;7.10;5.28;;;20.00;99.90;;;;;;4129487;28;20088;-76
2023/09/30 07:43:20;;;;;;;7.43;5.25;;;20.20;99.90;;;;;;4128792;28;20026;-76
2023/09/30 07:45:21;;;;;;;7.60;5.60;;;20.40;99.90;;;;;;4146259;28;20513;-75
2023/09/30 07:47:21;;;;;;;10.45;6.28;;;20.50;99.90;;;;;;4149202;28;20041;-75
2023/09/30 07:49:23;;;;;;;8.07;5.18;;;20.60;99.90;;;;;;4149479;28;20042;-74
2023/09/30 07:51:24;;;;;;;8.15;5.38;;;20.80;99.90;;;;;;4145907;28;20033;-75
2023/09/30 07:53:25;;;;;;;8.05;5.20;;;21.10;99.90;;;;;;4146438;28;20038;-74
2023/09/30 07:55:26;;;;;;;9.15;5.53;;;21.30;99.90;;;;;;4147325;28;20037;-75
2023/09/30 07:57:26;;;;;;;7.40;4.93;;;21.40;99.90;;;;;;4146553;28;20132;-74
2023/09/30 07:59:27;;;;;;;13.68;5.47;;;21.60;99.90;;;;;;4125338;28;20046;-75
2023/09/30 08:01:29;;;;;;;7.25;4.90;;;21.70;99.90;;;;;;4143164;28;20049;-75
2023/09/30 08:03:31;;;;;;;;;;;21.70;99.90;;;;;;4145066;28;20049;-75
2023/09/30 08:05:32;;;;;;;8.50;4.78;;;21.80;99.90;;;;;;4150702;28;20193;-75
2023/09/30 08:07:34;;;;;;;9.10;5.45;;;22.00;99.90;;;;;;4132557;28;21418;-75
2023/09/30 08:09:34;;;;;;;8.50;4.88;;;22.10;99.90;;;;;;4146733;28;20033;-75
2023/09/30 08:11:36;;;;;;;8.82;5.10;;;22.10;99.90;;;;;;4147678;28;20111;-76
2023/09/30 08:13:37;;;;;;;7.55;4.55;;;22.10;99.90;;;;;;4146710;28;20506;-75
2023/09/30 08:15:38;;;;;;;6.70;4.95;;;22.00;99.90;;;;;;4145005;28;20030;-75
2023/09/30 08:17:39;;;;;;;8.77;5.30;;;22.10;99.90;;;;;;4150989;28;20030;-75
2023/09/30 08:19:40;;;;;;;7.90;4.60;;;22.00;99.90;;;;;;4150337;28;20038;-75
2023/09/30 08:21:40;;;;;;;6.45;4.75;;;21.90;99.90;;;;;;4126955;28;20042;-75
2023/09/30 08:23:41;;;;;;;8.02;5.35;;;21.90;99.90;;;;;;4144786;28;20046;-75
2023/09/30 08:25:42;;;;;;;6.75;4.50;;;21.90;99.90;;;;;;4145509;28;20394;-75
2023/09/30 08:27:42;;;;;;;7.30;4.82;;;21.90;99.90;;;;;;4147785;28;20398;-65
2023/09/30 08:29:43;;;;;;;6.38;4.20;;;21.80;99.90;;;;;;4143080;28;20524;-65
2023/09/30 08:31:43;;;;;;;7.22;4.45;;;21.80;99.90;;;;;;4145101;28;20742;-66
2023/09/30 08:33:45;;;;;;;6.43;4.30;;;21.80;99.90;;;;;;4145041;28;20025;-65
2023/09/30 08:35:46;;;;;;;7.03;4.07;;;21.80;99.90;;;;;;4124450;28;20031;-66
2023/09/30 08:37:46;;;;;;;7.18;4.40;;;21.90;99.90;;;;;;4144780;28;20057;-66
2023/09/30 08:39:47;;;;;;;5.68;4.38;;;21.90;99.90;;;;;;4126298;28;20730;-65
2023/09/30 08:41:47;;;;;;;7.45;4.72;;;21.90;99.90;;;;;;4142322;28;20036;-65
2023/09/30 08:43:48;;;;;;;8.05;4.60;;;21.90;99.90;;;;;;4145345;28;20715;-66
2023/09/30 08:45:53;;;;;;;7.88;5.25;;;21.80;99.90;;;;;;4148199;28;20025;-65
2023/09/30 08:47:54;;;;;;;7.80;4.80;;;21.70;99.90;;;;;;4148018;28;20041;-65
2023/09/30 08:49:57;;;;;;;9.18;5.15;;;21.50;99.90;;;;;;4130119;28;20105;-66
2023/09/30 08:52:00;;;;;;;7.65;4.90;;;21.50;99.90;;;;;;4142278;28;20410;-66
2023/09/30 08:54:03;;;;;;;7.15;4.47;;;21.40;99.90;;;;;;4148330;28;20034;-65
2023/09/30 08:56:09;;;;;;;8.63;4.60;;;21.40;99.90;;;;;;4128500;28;20116;-65
2023/09/30 08:58:12;;;;;;;9.32;4.50;;;21.40;99.90;;;;;;4146560;28;20033;-65
2023/09/30 09:00:13;;;;;;;6.55;4.05;;;21.40;99.90;;;;;;4143266;28;20127;-65
2023/09/30 09:02:14;;;;;;;9.55;5.85;;;21.40;99.90;;;;;;4130274;28;20076;-65
2023/09/30 09:04:15;;;;;;;9.13;5.15;;;21.40;99.90;;;;;;4146756;28;20033;-65
2023/09/30 09:06:16;;;;;;;9.25;5.03;;;21.40;99.90;;;;;;4147484;28;20035;-65
2023/09/30 09:08:23;;;;;;;10.18;5.45;;;21.40;99.90;;;;;;4146119;28;20037;-65
2023/09/30 09:10:24;;;;;;;9.65;5.57;;;21.40;99.90;;;;;;4147991;28;20046;-65
2023/09/30 09:12:24;;;;;;;10.88;5.40;;;21.30;99.90;;;;;;4144732;28;20131;-66
2023/09/30 09:14:39;;;;;;;8.45;5.20;;;21.40;99.90;;;;;;4146866;28;20128;-65
2023/09/30 09:16:54;;;;;;;6.72;4.18;;;21.40;99.90;;;;;;4129942;28;20050;-64
2023/09/30 09:18:55;;;;;;;8.15;4.45;;;21.30;99.90;;;;;;4145929;28;20552;-65
2023/09/30 09:21:09;;;;;;;7.00;4.68;;;21.30;99.90;;;;;;4143643;28;20037;-64
2023/09/30 09:23:14;;;;;;;7.78;5.13;;;21.10;99.90;;;;;;4147158;28;20298;-64
2023/09/30 09:25:15;;;;;;;11.05;5.00;;;21.10;99.90;;;;;;4144778;28;20112;-65
2023/09/30 09:27:16;;;;;;;8.52;4.70;;;21.10;99.90;;;;;;4142537;28;20030;-65
2023/09/30 09:29:26;;;;;;;8.07;4.65;;;21.10;99.90;;;;;;4142621;28;20046;-65
2023/09/30 09:31:34;;;;;;;8.50;4.65;;;21.00;99.90;;;;;;4144299;28;20037;-65
2023/09/30 09:33:37;;;;;;;7.28;4.78;;;21.00;99.90;;;;;;4145840;28;20061;-64
2023/09/30 09:35:38;;;;;;;8.15;4.80;;;20.90;99.90;;;;;;4129156;28;20037;-64
2023/09/30 09:37:39;;;;;;;9.35;4.95;;;20.90;99.90;;;;;;4131415;28;20454;-68
2023/09/30 09:39:39;;;;;;;9.00;4.95;;;21.00;99.90;;;;;;4131218;28;20104;-68
2023/09/30 09:41:55;;;;;;;8.32;4.40;;;20.90;99.90;;;;;;4128473;28;20034;-68
2023/09/30 09:43:59;;;;;;;11.98;5.38;;;21.00;99.90;;;;;;4145761;28;20037;-68
2023/09/30 09:46:03;;;;;;;10.35;5.97;;;20.90;99.90;;;;;;4114233;28;20031;-68
2023/09/30 09:48:05;;;;;;;10.45;5.32;;;20.80;99.90;;;;;;4145458;28;20402;-68
2023/09/30 09:50:06;;;;;;;9.17;5.03;;;20.80;99.90;;;;;;4147707;28;20044;-68
2023/09/30 09:52:07;;;;;;;14.63;5.20;;;20.70;99.90;;;;;;4144110;28;20492;-68
2023/09/30 09:54:09;;;;;;;10.55;5.10;;;20.80;99.90;;;;;;4136919;28;20030;-68
2023/09/30 09:56:10;;;;;;;9.95;4.85;;;20.70;99.90;;;;;;4149690;28;20033;-68
2023/09/30 09:58:11;;;;;;;10.38;5.43;;;20.70;99.90;;;;;;4149590;28;20482;-68
2023/09/30 10:00:15;;;;;;;12.05;6.05;;;20.60;99.90;;;;;;4147866;28;20030;-68
2023/09/30 10:02:17;;;;;;;6.95;4.32;;;20.70;99.90;;;;;;4150838;28;20111;-69
2023/09/30 10:04:18;;;;;;;;;;;20.70;99.90;;;;;;4149589;28;20061;-68
2023/09/30 10:06:20;;;;;;;7.22;4.55;;;20.60;99.90;;;;;;4148373;28;19963;-68
2023/09/30 10:08:33;;;;;;;7.53;3.72;;;20.70;99.90;;;;;;4132778;28;20052;-68
2023/09/30 10:10:37;;;;;;;8.13;3.65;;;20.70;99.90;;;;;;4158065;28;20567;-68
2023/09/30 10:12:39;;;;;;;7.40;3.65;;;20.70;99.90;;;;;;4155601;28;20029;-67
2023/09/30 10:14:39;;;;;;;5.07;3.25;;;20.80;99.90;;;;;;4149471;28;20525;-67
2023/09/30 10:16:43;;;;;;;7.47;3.53;;;20.80;99.90;;;;;;4150210;28;20037;-68
2023/09/30 10:19:18;;;;;;;8.32;4.10;;;20.90;99.90;;;;;;4148307;28;20034;-68
2023/09/30 10:21:19;;;;;;;7.88;3.90;;;21.00;99.90;;;;;;4106857;28;20053;-68
2023/09/30 10:23:37;;;;;;;7.45;3.53;;;20.90;99.90;;;;;;4150090;28;20084;-68
2023/09/30 10:25:40;;;;;;;7.20;3.75;;;20.90;99.90;;;;;;4135408;28;20042;-68
2023/09/30 10:27:43;;;;;;;6.95;3.08;;;20.90;99.90;;;;;;4145676;28;20042;-68
2023/09/30 10:29:44;;;;;;;6.80;3.30;;;20.90;99.90;;;;;;4147527;28;20053;-68
2023/09/30 10:31:51;;;;;;;6.32;3.22;;;20.90;99.90;;;;;;4146478;28;20054;-67
2023/09/30 10:34:01;;;;;;;10.52;4.90;;;20.90;99.90;;;;;;4145354;28;20506;-68